createdAt,value
2018-11-23T00:02:10.363Z,92.20
2018-11-23T00:04:42.981Z,92.40
2018-11-23T00:07:15.481Z,92.30
2018-11-23T00:09:47.444Z,92.40
2018-11-23T00:12:19.847Z,92.10
2018-11-23T00:14:52.322Z,92.10
2018-11-23T00:17:24.709Z,92.00
2018-11-23T00:19:57.041Z,92.00
2018-11-23T00:22:29.202Z,91.90
2018-11-23T00:25:01.241Z,91.70
2018-11-23T00:27:33.737Z,91.60
2018-11-23T00:30:06.307Z,91.60
2018-11-23T00:32:38.174Z,91.80
2018-11-23T00:35:12.169Z,91.90
2018-11-23T00:37:45.221Z,91.90
2018-11-23T00:40:22.279Z,92.10
2018-11-23T00:42:54.405Z,92.20
2018-11-23T00:45:26.941Z,92.30
2018-11-23T00:47:59.878Z,92.70
2018-11-23T00:50:32.309Z,92.50
2018-11-23T00:53:04.659Z,92.50
2018-11-23T00:55:36.776Z,92.60
2018-11-23T00:58:08.948Z,92.50
2018-11-23T01:00:40.980Z,92.60
2018-11-23T01:03:13.208Z,92.70
2018-11-23T01:05:45.850Z,92.70
2018-11-23T01:08:17.857Z,92.90
2018-11-23T01:10:50.057Z,93.10
2018-11-23T01:13:22.479Z,93.10
2018-11-23T01:15:54.873Z,93.20
2018-11-23T01:18:27.203Z,93.40
2018-11-23T01:21:00.038Z,93.50
2018-11-23T01:23:32.602Z,93.60
2018-11-23T01:26:05.188Z,93.70
2018-11-23T01:28:37.598Z,93.80
2018-11-23T01:31:10.296Z,93.90
2018-11-23T01:33:42.657Z,93.90
2018-11-23T01:36:14.837Z,93.90
2018-11-23T01:38:47.019Z,93.70
2018-11-23T01:41:19.387Z,93.70
2018-11-23T01:43:52.991Z,93.70
2018-11-23T01:46:25.438Z,93.60
2018-11-23T01:48:57.660Z,93.40
2018-11-23T01:51:29.877Z,93.20
2018-11-23T01:54:02.263Z,93.10
2018-11-23T01:56:34.352Z,93.00
2018-11-23T01:59:06.995Z,93.20
2018-11-23T02:01:39.375Z,93.10
2018-11-23T02:04:12.765Z,92.70
2018-11-23T02:06:44.847Z,92.70
2018-11-23T02:09:16.936Z,92.60
2018-11-23T02:11:49.542Z,92.50
2018-11-23T02:14:22.097Z,92.40
2018-11-23T02:16:55.694Z,92.10
2018-11-23T02:19:27.838Z,92.10
2018-11-23T02:22:01.875Z,92.10
2018-11-23T02:24:34.217Z,92.00
2018-11-23T02:27:06.657Z,91.80
2018-11-23T02:29:39.151Z,91.90
2018-11-23T02:32:11.611Z,92.10
2018-11-23T02:34:43.694Z,92.00
2018-11-23T02:37:16.397Z,92.20
2018-11-23T02:39:49.054Z,92.30
2018-11-23T02:42:21.604Z,92.40
2018-11-23T02:44:54.504Z,92.50
2018-11-23T02:47:27.073Z,92.40
2018-11-23T02:49:59.605Z,92.20
2018-11-23T02:52:31.899Z,92.00
2018-11-23T02:55:04.079Z,92.10
2018-11-23T02:57:36.306Z,92.10
2018-11-23T03:00:11.220Z,92.10
2018-11-23T03:02:43.821Z,91.80
2018-11-23T03:05:17.890Z,91.70
2018-11-23T03:07:50.312Z,91.80
2018-11-23T03:10:23.018Z,91.90
2018-11-23T03:12:55.800Z,92.10
2018-11-23T03:15:27.851Z,92.00
2018-11-23T03:18:00.246Z,91.90
2018-11-23T03:20:32.798Z,92.00
2018-11-23T03:23:05.129Z,91.90
2018-11-23T03:25:37.660Z,91.90
2018-11-23T03:28:10.141Z,91.80
2018-11-23T03:30:42.885Z,92.00
2018-11-23T03:33:14.859Z,91.80
2018-11-23T03:35:47.244Z,91.80
2018-11-23T03:38:19.598Z,91.80
2018-11-23T03:40:51.879Z,91.70
2018-11-23T03:43:23.908Z,91.70
2018-11-23T03:45:56.401Z,91.60
2018-11-23T03:48:29.072Z,91.60
2018-11-23T03:51:01.353Z,91.60
2018-11-23T03:53:33.740Z,91.60
2018-11-23T03:56:05.739Z,91.70
2018-11-23T03:58:38.601Z,91.70
2018-11-23T04:01:10.725Z,91.80
2018-11-23T04:03:43.500Z,91.80
2018-11-23T04:06:15.712Z,91.70
2018-11-23T04:08:48.460Z,91.80
2018-11-23T04:11:21.067Z,91.70
2018-11-23T04:13:53.247Z,91.60
2018-11-23T04:16:25.610Z,91.60
2018-11-23T04:18:57.879Z,91.50
2018-11-23T04:21:30.019Z,91.40
2018-11-23T04:24:02.330Z,91.20
2018-11-23T04:26:34.508Z,91.10
2018-11-23T04:29:06.808Z,91.20
2018-11-23T04:31:39.264Z,91.30
2018-11-23T04:34:11.630Z,90.90
2018-11-23T04:36:43.724Z,90.80
2018-11-23T04:39:15.489Z,91.10
2018-11-23T04:41:47.475Z,91.00
2018-11-23T04:44:19.191Z,91.10
2018-11-23T04:46:51.697Z,91.10
2018-11-23T04:49:23.825Z,91.30
2018-11-23T04:51:56.430Z,91.40
2018-11-23T04:54:28.740Z,91.40
2018-11-23T04:57:02.493Z,91.40
2018-11-23T04:59:35.550Z,91.40
2018-11-23T05:02:08.013Z,91.50
2018-11-23T05:04:40.210Z,91.60
2018-11-23T05:07:13.031Z,91.60
2018-11-23T05:09:45.583Z,91.40
2018-11-23T05:12:18.097Z,91.60
2018-11-23T05:14:50.767Z,91.60
2018-11-23T05:17:22.890Z,91.50
2018-11-23T05:19:54.743Z,91.50
2018-11-23T05:22:27.141Z,91.60
2018-11-23T05:24:59.653Z,91.50
2018-11-23T05:27:32.133Z,91.30
2018-11-23T05:30:04.523Z,91.30
2018-11-23T05:32:36.785Z,91.40
2018-11-23T05:35:09.827Z,91.30
2018-11-23T05:37:41.615Z,91.40
2018-11-23T05:40:15.494Z,91.40
2018-11-23T05:42:47.802Z,91.40
2018-11-23T05:45:22.329Z,91.30
2018-11-23T05:47:54.668Z,91.40
2018-11-23T05:50:27.079Z,91.50
2018-11-23T05:52:59.642Z,91.50
2018-11-23T05:55:31.543Z,91.70
2018-11-23T05:58:03.388Z,91.60
2018-11-23T06:00:36.348Z,91.60
2018-11-23T06:03:08.888Z,91.80
2018-11-23T06:05:41.034Z,91.90
2018-11-23T06:08:13.708Z,91.90
2018-11-23T06:10:45.689Z,92.10
2018-11-23T06:13:17.601Z,92.10
2018-11-23T06:15:49.603Z,92.30
2018-11-23T06:18:22.635Z,92.20
2018-11-23T06:20:54.718Z,92.20
2018-11-23T06:23:26.694Z,92.10
2018-11-23T06:26:03.102Z,92.00
2018-11-23T06:28:35.926Z,92.00
2018-11-23T06:31:08.109Z,92.10
2018-11-23T06:33:41.945Z,91.90
2018-11-23T06:36:14.443Z,92.00
2018-11-23T06:38:47.285Z,92.10
2018-11-23T06:41:19.474Z,92.10
2018-11-23T06:43:51.970Z,92.10
2018-11-23T06:46:24.621Z,92.10
2018-11-23T06:48:56.888Z,91.90
2018-11-23T06:51:29.195Z,91.80
2018-11-23T06:54:01.385Z,91.60
2018-11-23T06:56:33.693Z,91.20
2018-11-23T06:59:05.994Z,91.10
2018-11-23T07:01:38.209Z,90.80
2018-11-23T07:04:10.785Z,90.80
2018-11-23T07:06:43.116Z,90.70
2018-11-23T07:09:15.266Z,90.60
2018-11-23T07:11:47.650Z,90.70
2018-11-23T07:14:19.786Z,90.20
2018-11-23T07:16:52.270Z,90.30
2018-11-23T07:19:24.977Z,90.30
2018-11-23T07:21:56.756Z,90.30
2018-11-23T07:24:29.063Z,90.20
2018-11-23T07:27:01.739Z,90.20
2018-11-23T07:29:33.886Z,90.10
2018-11-23T07:32:05.978Z,90.40
2018-11-23T07:34:38.294Z,90.00
2018-11-23T07:37:10.733Z,90.00
2018-11-23T07:39:52.254Z,89.40
2018-11-23T07:42:26.865Z,88.50
2018-11-23T07:44:58.714Z,87.30
2018-11-23T07:47:30.525Z,86.40
2018-11-23T07:50:02.483Z,86.60
2018-11-23T07:52:34.545Z,86.30
2018-11-23T07:55:07.770Z,86.20
2018-11-23T07:57:39.975Z,86.00
2018-11-23T08:00:16.918Z,85.70
2018-11-23T08:02:49.754Z,84.20
2018-11-23T08:05:22.569Z,84.40
2018-11-23T08:07:55.083Z,83.70
2018-11-23T08:10:26.290Z,84.00
2018-11-23T08:12:58.735Z,83.60
2018-11-23T08:15:31.283Z,84.10
2018-11-23T08:18:05.164Z,82.40
2018-11-23T08:20:37.686Z,82.40
2018-11-23T08:23:10.514Z,82.30
2018-11-23T08:25:43.079Z,82.70
2018-11-23T08:28:15.041Z,82.60
2018-11-23T08:30:46.863Z,83.10
2018-11-23T08:33:19.124Z,83.40
2018-11-23T08:35:51.462Z,82.90
2018-11-23T08:38:24.297Z,83.20
2018-11-23T08:40:56.695Z,83.60
2018-11-23T08:43:28.964Z,83.90
2018-11-23T08:46:01.193Z,83.90
2018-11-23T08:48:33.586Z,83.80
2018-11-23T08:51:06.180Z,83.10
2018-11-23T08:53:38.342Z,82.80
2018-11-23T08:56:10.978Z,82.40
2018-11-23T08:58:43.970Z,82.20
2018-11-23T09:01:17.084Z,82.40
2018-11-23T09:03:49.634Z,82.40
2018-11-23T09:06:22.092Z,82.90
2018-11-23T09:08:54.857Z,83.10
2018-11-23T09:11:27.858Z,82.50
2018-11-23T09:14:00.392Z,82.80
2018-11-23T09:16:32.982Z,82.40
2018-11-23T09:19:05.432Z,81.90
2018-11-23T09:21:38.215Z,82.10
2018-11-23T09:24:10.487Z,81.20
2018-11-23T09:26:43.073Z,81.90
2018-11-23T09:29:15.237Z,81.60
2018-11-23T09:31:47.607Z,81.60
2018-11-23T09:34:19.684Z,81.60
2018-11-23T09:36:52.484Z,81.70
2018-11-23T09:39:24.874Z,81.50
2018-11-23T09:41:57.394Z,81.60
2018-11-23T09:44:30.024Z,81.70
2018-11-23T09:47:02.233Z,81.90
2018-11-23T09:49:34.767Z,82.00
2018-11-23T09:52:07.492Z,81.90
2018-11-23T09:54:39.951Z,82.20
2018-11-23T09:57:12.039Z,81.50
2018-11-23T09:59:44.702Z,81.70
2018-11-23T10:02:16.979Z,81.30
2018-11-23T10:04:49.996Z,80.20
2018-11-23T10:07:23.096Z,80.30
2018-11-23T10:09:55.673Z,80.60
2018-11-23T10:12:27.787Z,80.00
2018-11-23T10:15:00.073Z,79.70
2018-11-23T10:17:32.219Z,79.60
2018-11-23T10:20:04.587Z,79.50
2018-11-23T10:22:36.964Z,79.90
2018-11-23T10:25:11.540Z,80.00
2018-11-23T10:27:44.577Z,80.10
2018-11-23T10:30:19.609Z,79.60
2018-11-23T10:32:53.003Z,79.60
2018-11-23T10:35:25.422Z,79.80
2018-11-23T10:37:59.145Z,80.60
2018-11-23T10:40:33.285Z,80.80
2018-11-23T10:43:05.695Z,80.80
2018-11-23T10:45:38.282Z,81.60
2018-11-23T10:48:10.899Z,80.10
2018-11-23T10:50:43.766Z,79.80
2018-11-23T10:53:16.574Z,79.00
2018-11-23T10:55:48.954Z,78.70
2018-11-23T10:58:21.034Z,78.90
2018-11-23T11:00:57.654Z,79.00
2018-11-23T11:03:36.717Z,78.30
2018-11-23T11:06:15.194Z,78.20
2018-11-23T11:08:47.821Z,77.80
2018-11-23T11:11:19.963Z,77.40
2018-11-23T11:13:52.118Z,77.10
2018-11-23T11:16:24.727Z,77.20
2018-11-23T11:18:57.712Z,77.50
2018-11-23T11:21:30.080Z,77.60
2018-11-23T11:24:02.487Z,77.60
2018-11-23T11:26:35.056Z,78.00
2018-11-23T11:29:07.575Z,77.90
2018-11-23T11:31:39.604Z,77.50
2018-11-23T11:34:11.934Z,77.70
2018-11-23T11:36:44.073Z,77.60
2018-11-23T11:39:18.193Z,76.70
2018-11-23T11:41:49.146Z,77.00
2018-11-23T11:44:27.419Z,76.60
2018-11-23T11:46:59.984Z,76.20
2018-11-23T11:49:32.369Z,75.40
2018-11-23T11:52:04.738Z,76.30
2018-11-23T11:54:37.239Z,76.70
2018-11-23T11:57:09.665Z,77.00
2018-11-23T11:59:41.997Z,77.40
2018-11-23T12:02:15.455Z,78.00
2018-11-23T12:04:47.889Z,78.80
2018-11-23T12:07:20.231Z,80.10
2018-11-23T12:09:52.626Z,81.70
2018-11-23T12:12:24.724Z,82.70
2018-11-23T12:14:56.898Z,84.20
2018-11-23T12:17:29.052Z,85.00
2018-11-23T12:20:01.363Z,85.80
2018-11-23T12:22:33.573Z,86.50
2018-11-23T12:25:05.914Z,86.60
2018-11-23T12:27:38.289Z,87.40
2018-11-23T12:30:13.249Z,87.80
2018-11-23T12:32:46.425Z,88.30
2018-11-23T12:35:19.752Z,89.10
2018-11-23T12:37:51.727Z,89.20
2018-11-23T12:40:24.232Z,90.00
2018-11-23T12:42:56.720Z,90.10
2018-11-23T12:45:30.216Z,90.30
2018-11-23T12:48:02.773Z,90.40
2018-11-23T12:50:35.071Z,90.40
2018-11-23T12:53:07.671Z,90.40
2018-11-23T12:55:39.698Z,90.50
2018-11-23T12:58:12.320Z,90.70
2018-11-23T13:00:44.674Z,90.70
2018-11-23T13:03:17.214Z,91.00
2018-11-23T13:05:49.441Z,90.90
2018-11-23T13:08:21.856Z,91.10
2018-11-23T13:10:54.172Z,91.30
2018-11-23T13:13:26.454Z,91.40
2018-11-23T13:15:58.679Z,91.40
2018-11-23T13:18:31.155Z,91.30
2018-11-23T13:21:04.053Z,91.50
2018-11-23T13:23:36.692Z,91.40
2018-11-23T13:26:09.302Z,91.50
2018-11-23T13:28:42.518Z,91.50
2018-11-23T13:31:14.939Z,91.50
2018-11-23T13:33:48.060Z,91.40
2018-11-23T13:36:20.305Z,91.50
2018-11-23T13:38:52.721Z,91.50
2018-11-23T13:41:25.257Z,91.40
2018-11-23T13:43:57.657Z,91.50
2018-11-23T13:46:30.261Z,91.70
2018-11-23T13:49:02.474Z,91.70
2018-11-23T13:51:34.943Z,91.70
2018-11-23T13:54:07.232Z,91.70
2018-11-23T13:56:39.717Z,91.60
2018-11-23T13:59:12.036Z,92.00
2018-11-23T14:01:44.304Z,91.90
2018-11-23T14:04:16.672Z,92.10
2018-11-23T14:06:49.137Z,92.00
2018-11-23T14:09:21.367Z,91.90
2018-11-23T14:11:53.892Z,92.10
2018-11-23T14:14:26.325Z,92.30
2018-11-23T14:16:58.690Z,92.30
2018-11-23T14:19:30.940Z,92.20
2018-11-23T14:22:03.492Z,92.20
2018-11-23T14:24:35.933Z,92.40
2018-11-23T14:27:08.356Z,92.40
2018-11-23T14:29:41.217Z,92.40
2018-11-23T14:32:13.786Z,92.50
2018-11-23T14:34:46.111Z,92.60
2018-11-23T14:37:18.430Z,92.70
2018-11-23T14:39:50.697Z,92.70
2018-11-23T14:42:23.504Z,92.90
2018-11-23T14:44:56.160Z,93.00
2018-11-23T14:47:28.728Z,93.10
2018-11-23T14:50:00.886Z,93.20
2018-11-23T14:52:33.305Z,93.40
2018-11-23T14:55:05.897Z,93.40
2018-11-23T14:57:38.473Z,93.50
2018-11-23T15:00:18.789Z,93.50
2018-11-23T15:02:52.680Z,93.50
2018-11-23T15:05:25.021Z,93.50
2018-11-23T15:07:57.508Z,93.60
2018-11-23T15:10:31.054Z,93.80
2018-11-23T15:13:04.340Z,93.80
2018-11-23T15:15:40.805Z,93.80
2018-11-23T15:18:13.183Z,93.80
2018-11-23T15:20:46.811Z,93.90
2018-11-23T15:23:22.233Z,93.90
2018-11-23T15:25:54.524Z,93.90
2018-11-23T15:28:27.091Z,93.90
2018-11-23T15:30:59.710Z,94.00
2018-11-23T15:33:32.318Z,94.00
2018-11-23T15:36:05.363Z,93.90
2018-11-23T15:38:37.893Z,93.90
2018-11-23T15:41:10.537Z,93.80
2018-11-23T15:43:42.665Z,93.80
2018-11-23T15:46:15.036Z,93.80
2018-11-23T15:48:47.570Z,93.80
2018-11-23T15:51:20.248Z,93.90
2018-11-23T15:53:52.613Z,93.90
2018-11-23T15:56:24.987Z,94.10
2018-11-23T15:58:57.556Z,93.90
2018-11-23T16:01:29.862Z,93.90
2018-11-23T16:04:02.697Z,93.80
2018-11-23T16:06:35.248Z,93.90
2018-11-23T16:09:10.058Z,94.00
2018-11-23T16:11:42.758Z,94.10
2018-11-23T16:14:14.999Z,94.20
2018-11-23T16:16:47.468Z,94.20
2018-11-23T16:19:19.675Z,94.00
2018-11-23T16:21:51.716Z,94.10
2018-11-23T16:24:24.038Z,94.10
2018-11-23T16:26:56.429Z,94.30
2018-11-23T16:29:28.671Z,94.20
2018-11-23T16:32:01.150Z,94.30
2018-11-23T16:34:33.479Z,94.20
2018-11-23T16:37:05.931Z,94.50
2018-11-23T16:39:38.297Z,94.50
2018-11-23T16:42:10.484Z,94.50
2018-11-23T16:44:43.110Z,94.60
2018-11-23T16:47:15.434Z,94.80
2018-11-23T16:49:47.759Z,94.70
2018-11-23T16:52:21.159Z,94.80
2018-11-23T16:54:52.823Z,94.90
2018-11-23T16:57:25.175Z,94.90
2018-11-23T16:59:57.405Z,94.90
2018-11-23T17:02:29.768Z,94.80
2018-11-23T17:05:01.891Z,94.80
2018-11-23T17:07:34.322Z,94.80
2018-11-23T17:10:07.605Z,94.90
2018-11-23T17:12:40.317Z,94.80
2018-11-23T17:15:15.531Z,94.70
2018-11-23T17:17:48.119Z,94.60
2018-11-23T17:20:22.745Z,94.60
2018-11-23T17:22:56.483Z,94.50
2018-11-23T17:25:29.924Z,94.60
2018-11-23T17:28:03.628Z,94.80
2018-11-23T17:30:36.486Z,94.60
2018-11-23T17:33:08.886Z,94.50
2018-11-23T17:35:41.193Z,94.60
2018-11-23T17:38:13.736Z,94.60
2018-11-23T17:40:45.984Z,94.50
2018-11-23T17:43:18.305Z,94.50
2018-11-23T17:45:50.679Z,94.50
2018-11-23T17:48:23.345Z,94.60
2018-11-23T17:50:58.959Z,94.70
2018-11-23T17:53:31.306Z,94.70
2018-11-23T17:56:03.572Z,94.80
2018-11-23T17:58:36.176Z,94.80
2018-11-23T18:01:08.791Z,95.00
2018-11-23T18:03:41.580Z,95.10
2018-11-23T18:06:14.016Z,95.20
2018-11-23T18:08:46.302Z,94.90
2018-11-23T18:11:18.684Z,95.10
2018-11-23T18:13:51.016Z,95.20
2018-11-23T18:16:23.552Z,95.10
2018-11-23T18:18:56.159Z,95.10
2018-11-23T18:21:28.589Z,95.10
2018-11-23T18:24:00.950Z,95.20
2018-11-23T18:26:33.298Z,95.00
2018-11-23T18:29:05.675Z,94.80
2018-11-23T18:31:38.022Z,94.90
2018-11-23T18:34:10.847Z,94.60
2018-11-23T18:36:43.130Z,94.40
2018-11-23T18:39:15.832Z,94.40
2018-11-23T18:41:48.262Z,94.20
2018-11-23T18:44:21.061Z,94.30
2018-11-23T18:46:53.790Z,94.20
2018-11-23T18:49:25.920Z,93.80
2018-11-23T18:51:58.293Z,93.80
2018-11-23T18:54:30.464Z,93.30
2018-11-23T18:57:03.056Z,92.90
2018-11-23T18:59:35.620Z,92.70
2018-11-23T19:02:08.032Z,92.00
2018-11-23T19:04:40.231Z,91.90
2018-11-23T19:07:12.399Z,91.70
2018-11-23T19:09:44.532Z,91.60
2018-11-23T19:12:16.718Z,91.60
2018-11-23T19:14:48.986Z,91.30
2018-11-23T19:17:21.464Z,91.70
2018-11-23T19:19:53.560Z,91.40
2018-11-23T19:22:25.942Z,91.50
2018-11-23T19:24:58.668Z,91.50
2018-11-23T19:27:30.897Z,90.90
2018-11-23T19:30:03.113Z,90.90
2018-11-23T19:32:35.344Z,90.50
2018-11-23T19:35:08.055Z,90.30
2018-11-23T19:37:40.307Z,90.30
2018-11-23T19:40:14.430Z,90.40
2018-11-23T19:42:47.072Z,90.60
2018-11-23T19:45:19.968Z,90.50
2018-11-23T19:47:52.739Z,90.90
2018-11-23T19:50:25.317Z,90.60
2018-11-23T19:52:57.623Z,90.50
2018-11-23T19:55:30.101Z,90.50
2018-11-23T19:58:02.479Z,90.40
2018-11-23T20:00:35.038Z,89.40
2018-11-23T20:03:08.012Z,89.80
2018-11-23T20:05:40.400Z,89.70
2018-11-23T20:08:12.881Z,90.00
2018-11-23T20:10:45.056Z,89.90
2018-11-23T20:13:17.383Z,90.00
2018-11-23T20:15:49.625Z,89.40
2018-11-23T20:18:22.125Z,89.70
2018-11-23T20:20:54.383Z,88.40
2018-11-23T20:23:26.714Z,87.70
2018-11-23T20:25:59.297Z,87.00
2018-11-23T20:28:31.652Z,85.90
2018-11-23T20:31:04.278Z,85.80
2018-11-23T20:33:36.198Z,84.20
2018-11-23T20:36:08.054Z,85.20
2018-11-23T20:38:40.485Z,85.80
2018-11-23T20:41:13.008Z,84.40
2018-11-23T20:43:45.336Z,84.90
2018-11-23T20:46:17.543Z,83.10
2018-11-23T20:48:49.902Z,81.70
2018-11-23T20:51:22.634Z,80.70
2018-11-23T20:53:54.475Z,81.00
2018-11-23T20:56:26.273Z,81.50
2018-11-23T20:58:58.693Z,80.50
2018-11-23T21:01:30.952Z,79.10
2018-11-23T21:04:03.917Z,79.70
2018-11-23T21:06:36.531Z,79.30
2018-11-23T21:09:12.368Z,79.90
2018-11-23T21:11:44.283Z,80.30
2018-11-23T21:14:16.145Z,81.00
2018-11-23T21:16:48.215Z,81.50
2018-11-23T21:19:21.788Z,81.10
2018-11-23T21:21:54.236Z,80.80
2018-11-23T21:24:26.729Z,80.30
2018-11-23T21:26:59.258Z,79.90
2018-11-23T21:29:32.092Z,80.30
2018-11-23T21:32:05.000Z,80.50
2018-11-23T21:34:37.556Z,79.80
2018-11-23T21:37:09.969Z,80.40
2018-11-23T21:39:42.969Z,80.00
2018-11-23T21:42:15.332Z,80.00
2018-11-23T21:44:47.691Z,79.40
2018-11-23T21:47:19.868Z,80.00
2018-11-23T21:49:52.196Z,80.20
2018-11-23T21:52:24.199Z,80.30
2018-11-23T21:54:56.164Z,79.60
2018-11-23T21:57:28.326Z,79.00
2018-11-23T22:00:01.048Z,79.60
2018-11-23T22:02:33.171Z,79.40
2018-11-23T22:05:05.596Z,79.20
2018-11-23T22:07:37.725Z,77.30
2018-11-23T22:10:14.232Z,77.50
2018-11-23T22:12:46.710Z,76.40
2018-11-23T22:15:21.065Z,77.60
2018-11-23T22:17:53.944Z,79.20
2018-11-23T22:20:26.650Z,81.00
2018-11-23T22:22:59.014Z,80.00
2018-11-23T22:25:31.335Z,80.80
2018-11-23T22:28:03.952Z,81.00
2018-11-23T22:30:36.587Z,81.40
2018-11-23T22:33:08.937Z,80.50
2018-11-23T22:35:41.602Z,81.60
2018-11-23T22:38:13.756Z,81.00
2018-11-23T22:40:46.732Z,83.10
2018-11-23T22:43:19.113Z,84.10
2018-11-23T22:45:51.313Z,83.10
2018-11-23T22:48:23.696Z,83.40
2018-11-23T22:50:56.129Z,83.00
2018-11-23T22:53:28.851Z,83.10
2018-11-23T22:56:01.073Z,81.70
2018-11-23T22:58:33.636Z,80.00
2018-11-23T23:01:05.869Z,78.00
2018-11-23T23:03:38.940Z,78.10
2018-11-23T23:06:11.326Z,77.60
2018-11-23T23:08:43.712Z,76.70
2018-11-23T23:11:16.217Z,76.90
2018-11-23T23:13:48.830Z,77.20
2018-11-23T23:16:20.966Z,77.90
2018-11-23T23:18:53.482Z,79.60
2018-11-23T23:21:26.143Z,80.90
2018-11-23T23:23:58.637Z,82.40
2018-11-23T23:26:30.632Z,84.00
2018-11-23T23:29:03.271Z,85.00
2018-11-23T23:31:35.506Z,86.00
2018-11-23T23:34:07.988Z,86.50
2018-11-23T23:36:40.017Z,86.80
2018-11-23T23:39:12.627Z,87.20
2018-11-23T23:41:44.759Z,87.70
2018-11-23T23:44:17.019Z,87.50
2018-11-23T23:46:49.501Z,87.70
2018-11-23T23:49:22.349Z,87.80
2018-11-23T23:51:54.630Z,87.70
2018-11-23T23:54:26.988Z,87.50
2018-11-23T23:56:59.404Z,87.50
2018-11-23T23:59:31.843Z,87.80
